sensor_id;sensor_type;location;lat;lon;timestamp;temperature;humidity
52203;DHT22;38173;52.850;6.970;2023-03-24T00:00:58;10.90;99.90
52203;DHT22;38173;52.850;6.970;2023-03-24T00:03:24;10.90;99.90
52203;DHT22;38173;52.850;6.970;2023-03-24T00:05:59;10.90;99.90
52203;DHT22;38173;52.850;6.970;2023-03-24T00:08:27;10.90;99.90
52203;DHT22;38173;52.850;6.970;2023-03-24T00:10:58;10.90;99.90
52203;DHT22;38173;52.850;6.970;2023-03-24T00:13:26;10.90;99.90
52203;DHT22;38173;52.850;6.970;2023-03-24T00:15:52;10.90;99.90
52203;DHT22;38173;52.850;6.970;2023-03-24T00:18:18;10.90;99.90
52203;DHT22;38173;52.850;6.970;2023-03-24T00:20:47;10.80;99.90
52203;DHT22;38173;52.850;6.970;2023-03-24T00:23:13;10.90;99.90
52203;DHT22;38173;52.850;6.970;2023-03-24T00:25:39;10.80;99.90
52203;DHT22;38173;52.850;6.970;2023-03-24T00:28:05;10.80;99.90
52203;DHT22;38173;52.850;6.970;2023-03-24T00:30:32;10.80;99.90
52203;DHT22;38173;52.850;6.970;2023-03-24T00:32:57;10.80;99.90
52203;DHT22;38173;52.850;6.970;2023-03-24T00:35:26;10.80;99.90
52203;DHT22;38173;52.850;6.970;2023-03-24T00:37:52;10.80;99.90
52203;DHT22;38173;52.850;6.970;2023-03-24T00:40:18;10.80;99.90
52203;DHT22;38173;52.850;6.970;2023-03-24T00:42:45;10.80;99.90
52203;DHT22;38173;52.850;6.970;2023-03-24T00:45:13;10.80;99.90
52203;DHT22;38173;52.850;6.970;2023-03-24T00:47:39;10.80;99.90
52203;DHT22;38173;52.850;6.970;2023-03-24T00:50:07;10.80;99.90
52203;DHT22;38173;52.850;6.970;2023-03-24T00:52:33;10.80;99.90
52203;DHT22;38173;52.850;6.970;2023-03-24T00:54:59;10.70;99.90
52203;DHT22;38173;52.850;6.970;2023-03-24T00:57:26;10.70;99.90
52203;DHT22;38173;52.850;6.970;2023-03-24T00:59:54;10.70;99.90
52203;DHT22;38173;52.850;6.970;2023-03-24T01:02:24;10.70;99.90
52203;DHT22;38173;52.850;6.970;2023-03-24T01:04:59;10.80;99.90
52203;DHT22;38173;52.850;6.970;2023-03-24T01:07:27;10.80;99.90
52203;DHT22;38173;52.850;6.970;2023-03-24T01:09:54;10.70;99.90
52203;DHT22;38173;52.850;6.970;2023-03-24T01:12:29;10.80;99.90
52203;DHT22;38173;52.850;6.970;2023-03-24T01:14:58;10.80;99.90
52203;DHT22;38173;52.850;6.970;2023-03-24T01:17:24;10.80;99.90
52203;DHT22;38173;52.850;6.970;2023-03-24T01:19:53;10.80;99.90
52203;DHT22;38173;52.850;6.970;2023-03-24T01:22:19;10.80;99.90
52203;DHT22;38173;52.850;6.970;2023-03-24T01:24:47;10.80;99.90
52203;DHT22;38173;52.850;6.970;2023-03-24T01:27:13;10.90;99.90
52203;DHT22;38173;52.850;6.970;2023-03-24T01:29:41;10.90;99.90
52203;DHT22;38173;52.850;6.970;2023-03-24T01:32:07;10.90;99.90
52203;DHT22;38173;52.850;6.970;2023-03-24T01:34:33;10.90;99.90
52203;DHT22;38173;52.850;6.970;2023-03-24T01:36:59;10.90;99.90
52203;DHT22;38173;52.850;6.970;2023-03-24T01:39:25;10.90;99.90
52203;DHT22;38173;52.850;6.970;2023-03-24T01:41:51;10.90;99.90
52203;DHT22;38173;52.850;6.970;2023-03-24T01:44:28;10.90;99.90
52203;DHT22;38173;52.850;6.970;2023-03-24T01:46:54;10.90;99.90
52203;DHT22;38173;52.850;6.970;2023-03-24T01:49:20;10.90;99.90
52203;DHT22;38173;52.850;6.970;2023-03-24T01:51:47;11.00;99.90
52203;DHT22;38173;52.850;6.970;2023-03-24T01:54:19;10.90;99.90
52203;DHT22;38173;52.850;6.970;2023-03-24T01:56:59;10.90;99.90
52203;DHT22;38173;52.850;6.970;2023-03-24T01:59:28;10.90;99.90
52203;DHT22;38173;52.850;6.970;2023-03-24T02:01:54;10.90;99.90
52203;DHT22;38173;52.850;6.970;2023-03-24T02:04:28;11.00;99.90
52203;DHT22;38173;52.850;6.970;2023-03-24T02:06:54;11.00;99.90
52203;DHT22;38173;52.850;6.970;2023-03-24T02:09:21;11.00;99.90
52203;DHT22;38173;52.850;6.970;2023-03-24T02:11:47;11.00;99.90
52203;DHT22;38173;52.850;6.970;2023-03-24T02:14:12;11.00;99.90
52203;DHT22;38173;52.850;6.970;2023-03-24T02:37:27;11.20;99.90
52203;DHT22;38173;52.850;6.970;2023-03-24T02:45:24;11.20;99.90
52203;DHT22;38173;52.850;6.970;2023-03-24T02:47:55;11.20;99.90
52203;DHT22;38173;52.850;6.970;2023-03-24T02:55:50;11.20;99.90
52203;DHT22;38173;52.850;6.970;2023-03-24T02:58:34;11.30;99.90
52203;DHT22;38173;52.850;6.970;2023-03-24T03:03:56;11.30;99.90
52203;DHT22;38173;52.850;6.970;2023-03-24T03:06:27;11.30;99.90
52203;DHT22;38173;52.850;6.970;2023-03-24T03:08:54;11.30;99.90
52203;DHT22;38173;52.850;6.970;2023-03-24T03:11:21;11.30;99.90
52203;DHT22;38173;52.850;6.970;2023-03-24T03:13:51;11.30;99.90
52203;DHT22;38173;52.850;6.970;2023-03-24T03:16:23;11.30;99.90
52203;DHT22;38173;52.850;6.970;2023-03-24T03:19:23;11.30;99.90
52203;DHT22;38173;52.850;6.970;2023-03-24T03:21:43;11.30;99.90
52203;DHT22;38173;52.850;6.970;2023-03-24T03:24:10;11.40;99.90
52203;DHT22;38173;52.850;6.970;2023-03-24T03:26:40;11.30;99.90
52203;DHT22;38173;52.850;6.970;2023-03-24T03:29:10;11.30;99.90
52203;DHT22;38173;52.850;6.970;2023-03-24T03:31:39;11.30;99.90
52203;DHT22;38173;52.850;6.970;2023-03-24T03:36:47;11.40;99.90
52203;DHT22;38173;52.850;6.970;2023-03-24T03:39:22;11.40;99.90
52203;DHT22;38173;52.850;6.970;2023-03-24T03:41:52;11.40;99.90
52203;DHT22;38173;52.850;6.970;2023-03-24T03:44:18;11.40;99.90
52203;DHT22;38173;52.850;6.970;2023-03-24T03:46:43;11.40;99.90
52203;DHT22;38173;52.850;6.970;2023-03-24T03:49:09;11.40;99.90
52203;DHT22;38173;52.850;6.970;2023-03-24T03:51:35;11.40;99.90
52203;DHT22;38173;52.850;6.970;2023-03-24T03:54:07;11.40;99.90
52203;DHT22;38173;52.850;6.970;2023-03-24T03:56:34;11.40;99.90
52203;DHT22;38173;52.850;6.970;2023-03-24T03:59:00;11.40;99.90
52203;DHT22;38173;52.850;6.970;2023-03-24T04:01:28;11.50;99.90
52203;DHT22;38173;52.850;6.970;2023-03-24T04:22:24;11.30;99.90
52203;DHT22;38173;52.850;6.970;2023-03-24T04:27:24;11.10;99.90
52203;DHT22;38173;52.850;6.970;2023-03-24T04:34:55;10.90;99.90
52203;DHT22;38173;52.850;6.970;2023-03-24T04:37:30;10.80;99.90
52203;DHT22;38173;52.850;6.970;2023-03-24T04:40:09;10.70;99.90
52203;DHT22;38173;52.850;6.970;2023-03-24T04:42:38;10.70;99.90
52203;DHT22;38173;52.850;6.970;2023-03-24T04:45:05;10.60;99.90
52203;DHT22;38173;52.850;6.970;2023-03-24T04:47:33;10.60;99.90
52203;DHT22;38173;52.850;6.970;2023-03-24T04:50:08;10.50;99.90
52203;DHT22;38173;52.850;6.970;2023-03-24T04:52:39;10.50;99.90
52203;DHT22;38173;52.850;6.970;2023-03-24T04:57:57;10.40;99.90
52203;DHT22;38173;52.850;6.970;2023-03-24T05:00:23;10.30;99.90
52203;DHT22;38173;52.850;6.970;2023-03-24T05:02:49;10.30;99.90
52203;DHT22;38173;52.850;6.970;2023-03-24T05:05:16;10.20;99.90
52203;DHT22;38173;52.850;6.970;2023-03-24T05:07:42;10.10;99.90
52203;DHT22;38173;52.850;6.970;2023-03-24T05:10:08;10.10;99.90
52203;DHT22;38173;52.850;6.970;2023-03-24T05:12:34;10.10;99.90
52203;DHT22;38173;52.850;6.970;2023-03-24T05:15:01;10.00;99.90
52203;DHT22;38173;52.850;6.970;2023-03-24T05:17:26;10.00;99.90
52203;DHT22;38173;52.850;6.970;2023-03-24T05:19:52;9.90;99.90
52203;DHT22;38173;52.850;6.970;2023-03-24T05:22:18;9.90;99.90
52203;DHT22;38173;52.850;6.970;2023-03-24T05:24:43;9.80;99.90
52203;DHT22;38173;52.850;6.970;2023-03-24T05:27:09;9.90;99.90
52203;DHT22;38173;52.850;6.970;2023-03-24T05:29:35;9.80;99.90
52203;DHT22;38173;52.850;6.970;2023-03-24T05:32:01;9.90;99.90
52203;DHT22;38173;52.850;6.970;2023-03-24T05:34:27;9.90;99.90
52203;DHT22;38173;52.850;6.970;2023-03-24T05:36:53;9.90;99.90
52203;DHT22;38173;52.850;6.970;2023-03-24T05:39:20;9.90;99.90
52203;DHT22;38173;52.850;6.970;2023-03-24T05:41:46;9.90;99.90
52203;DHT22;38173;52.850;6.970;2023-03-24T05:44:12;9.90;99.90
52203;DHT22;38173;52.850;6.970;2023-03-24T05:46:38;9.90;99.90
52203;DHT22;38173;52.850;6.970;2023-03-24T05:49:06;9.90;99.90
52203;DHT22;38173;52.850;6.970;2023-03-24T05:51:34;9.90;99.90
52203;DHT22;38173;52.850;6.970;2023-03-24T05:54:00;9.80;99.90
52203;DHT22;38173;52.850;6.970;2023-03-24T05:56:26;9.90;99.90
52203;DHT22;38173;52.850;6.970;2023-03-24T05:58:52;9.80;99.90
52203;DHT22;38173;52.850;6.970;2023-03-24T06:01:18;9.80;99.90
52203;DHT22;38173;52.850;6.970;2023-03-24T06:03:43;9.80;99.90
52203;DHT22;38173;52.850;6.970;2023-03-24T06:06:09;9.80;99.90
52203;DHT22;38173;52.850;6.970;2023-03-24T06:08:41;9.80;99.90
52203;DHT22;38173;52.850;6.970;2023-03-24T06:11:09;9.80;99.90
52203;DHT22;38173;52.850;6.970;2023-03-24T06:13:35;9.70;99.90
52203;DHT22;38173;52.850;6.970;2023-03-24T06:16:02;9.70;99.90
52203;DHT22;38173;52.850;6.970;2023-03-24T06:18:28;9.70;99.90
52203;DHT22;38173;52.850;6.970;2023-03-24T06:20:58;9.60;99.90
52203;DHT22;38173;52.850;6.970;2023-03-24T06:23:27;9.60;99.90
52203;DHT22;38173;52.850;6.970;2023-03-24T06:25:53;9.60;99.90
52203;DHT22;38173;52.850;6.970;2023-03-24T06:28:20;9.60;99.90
52203;DHT22;38173;52.850;6.970;2023-03-24T06:30:46;9.60;99.90
52203;DHT22;38173;52.850;6.970;2023-03-24T06:33:13;9.60;99.90
52203;DHT22;38173;52.850;6.970;2023-03-24T06:35:39;9.60;99.90
52203;DHT22;38173;52.850;6.970;2023-03-24T06:38:05;9.70;99.90
52203;DHT22;38173;52.850;6.970;2023-03-24T06:40:31;9.70;99.90
52203;DHT22;38173;52.850;6.970;2023-03-24T06:42:57;9.70;99.90
52203;DHT22;38173;52.850;6.970;2023-03-24T06:45:23;9.80;99.90
52203;DHT22;38173;52.850;6.970;2023-03-24T06:47:51;9.80;99.90
52203;DHT22;38173;52.850;6.970;2023-03-24T06:50:17;9.80;99.90
52203;DHT22;38173;52.850;6.970;2023-03-24T06:52:45;9.90;99.90
52203;DHT22;38173;52.850;6.970;2023-03-24T06:55:11;9.90;99.90
52203;DHT22;38173;52.850;6.970;2023-03-24T06:57:38;9.90;99.90
52203;DHT22;38173;52.850;6.970;2023-03-24T07:00:05;9.90;99.90
52203;DHT22;38173;52.850;6.970;2023-03-24T07:02:33;10.00;99.90
52203;DHT22;38173;52.850;6.970;2023-03-24T07:05:03;10.00;99.90
52203;DHT22;38173;52.850;6.970;2023-03-24T07:07:34;10.00;99.90
52203;DHT22;38173;52.850;6.970;2023-03-24T07:10:00;10.00;99.90
52203;DHT22;38173;52.850;6.970;2023-03-24T07:12:26;10.10;99.90
52203;DHT22;38173;52.850;6.970;2023-03-24T07:14:52;10.10;99.90
52203;DHT22;38173;52.850;6.970;2023-03-24T07:17:23;10.20;99.90
52203;DHT22;38173;52.850;6.970;2023-03-24T07:19:51;10.20;99.90
52203;DHT22;38173;52.850;6.970;2023-03-24T07:22:17;10.20;99.90
52203;DHT22;38173;52.850;6.970;2023-03-24T07:24:46;10.30;99.90
52203;DHT22;38173;52.850;6.970;2023-03-24T07:27:11;10.40;99.90
52203;DHT22;38173;52.850;6.970;2023-03-24T07:29:37;10.40;99.90
52203;DHT22;38173;52.850;6.970;2023-03-24T07:32:03;10.40;99.90
52203;DHT22;38173;52.850;6.970;2023-03-24T07:34:33;10.50;99.90
52203;DHT22;38173;52.850;6.970;2023-03-24T07:36:58;10.40;99.90
52203;DHT22;38173;52.850;6.970;2023-03-24T07:39:24;10.40;99.90
52203;DHT22;38173;52.850;6.970;2023-03-24T07:41:50;10.40;99.90
52203;DHT22;38173;52.850;6.970;2023-03-24T07:44:16;10.40;99.90
52203;DHT22;38173;52.850;6.970;2023-03-24T07:46:43;10.40;99.90
52203;DHT22;38173;52.850;6.970;2023-03-24T07:49:12;10.40;99.90
52203;DHT22;38173;52.850;6.970;2023-03-24T07:51:41;10.40;99.90
52203;DHT22;38173;52.850;6.970;2023-03-24T07:54:09;10.40;99.90
52203;DHT22;38173;52.850;6.970;2023-03-24T07:56:36;10.40;99.90
52203;DHT22;38173;52.850;6.970;2023-03-24T07:59:01;10.40;99.90
52203;DHT22;38173;52.850;6.970;2023-03-24T08:01:27;10.40;99.90
52203;DHT22;38173;52.850;6.970;2023-03-24T08:03:54;10.40;99.90
52203;DHT22;38173;52.850;6.970;2023-03-24T08:06:20;10.40;99.90
52203;DHT22;38173;52.850;6.970;2023-03-24T08:08:46;10.40;99.90
52203;DHT22;38173;52.850;6.970;2023-03-24T08:11:12;10.40;99.90
52203;DHT22;38173;52.850;6.970;2023-03-24T08:13:37;10.40;99.90
52203;DHT22;38173;52.850;6.970;2023-03-24T08:16:03;10.40;99.90
52203;DHT22;38173;52.850;6.970;2023-03-24T08:18:29;10.50;99.90
52203;DHT22;38173;52.850;6.970;2023-03-24T08:20:57;10.50;99.90
52203;DHT22;38173;52.850;6.970;2023-03-24T08:23:23;10.60;99.90
52203;DHT22;38173;52.850;6.970;2023-03-24T08:25:49;10.60;99.90
52203;DHT22;38173;52.850;6.970;2023-03-24T08:28:15;10.70;99.90
52203;DHT22;38173;52.850;6.970;2023-03-24T08:30:41;10.80;99.90
52203;DHT22;38173;52.850;6.970;2023-03-24T08:33:08;10.90;99.90
52203;DHT22;38173;52.850;6.970;2023-03-24T08:35:35;11.10;99.90
52203;DHT22;38173;52.850;6.970;2023-03-24T08:38:04;11.20;99.90
52203;DHT22;38173;52.850;6.970;2023-03-24T08:40:30;11.30;99.90
52203;DHT22;38173;52.850;6.970;2023-03-24T08:43:00;11.30;99.90
52203;DHT22;38173;52.850;6.970;2023-03-24T08:45:30;11.40;99.90
52203;DHT22;38173;52.850;6.970;2023-03-24T08:48:00;11.40;99.90
52203;DHT22;38173;52.850;6.970;2023-03-24T08:50:31;11.40;99.90
52203;DHT22;38173;52.850;6.970;2023-03-24T08:52:58;11.50;99.90
52203;DHT22;38173;52.850;6.970;2023-03-24T08:55:24;11.40;99.90
52203;DHT22;38173;52.850;6.970;2023-03-24T08:57:50;11.40;99.90
52203;DHT22;38173;52.850;6.970;2023-03-24T09:00:17;11.40;99.90
52203;DHT22;38173;52.850;6.970;2023-03-24T09:02:53;11.40;99.90
52203;DHT22;38173;52.850;6.970;2023-03-24T09:05:21;11.50;99.90
52203;DHT22;38173;52.850;6.970;2023-03-24T09:07:48;11.80;99.90
52203;DHT22;38173;52.850;6.970;2023-03-24T09:10:14;12.20;99.90
52203;DHT22;38173;52.850;6.970;2023-03-24T09:12:40;12.40;99.90
52203;DHT22;38173;52.850;6.970;2023-03-24T09:15:07;12.60;99.90
52203;DHT22;38173;52.850;6.970;2023-03-24T09:17:34;12.70;99.90
52203;DHT22;38173;52.850;6.970;2023-03-24T09:20:05;12.80;99.90
52203;DHT22;38173;52.850;6.970;2023-03-24T09:22:36;12.70;99.90
52203;DHT22;38173;52.850;6.970;2023-03-24T09:25:02;12.50;99.90
52203;DHT22;38173;52.850;6.970;2023-03-24T09:27:31;12.30;99.90
52203;DHT22;38173;52.850;6.970;2023-03-24T09:29:57;12.20;99.90
52203;DHT22;38173;52.850;6.970;2023-03-24T09:32:22;12.40;99.90
52203;DHT22;38173;52.850;6.970;2023-03-24T09:34:48;12.60;99.90
52203;DHT22;38173;52.850;6.970;2023-03-24T09:37:16;12.90;99.90
52203;DHT22;38173;52.850;6.970;2023-03-24T09:39:43;13.00;99.90
52203;DHT22;38173;52.850;6.970;2023-03-24T09:42:13;13.00;99.90
52203;DHT22;38173;52.850;6.970;2023-03-24T09:44:43;13.00;99.90
52203;DHT22;38173;52.850;6.970;2023-03-24T09:47:27;13.00;99.90
52203;DHT22;38173;52.850;6.970;2023-03-24T09:49:54;12.80;99.90
52203;DHT22;38173;52.850;6.970;2023-03-24T09:52:35;12.70;99.90
52203;DHT22;38173;52.850;6.970;2023-03-24T09:55:15;12.60;99.90
52203;DHT22;38173;52.850;6.970;2023-03-24T09:57:46;12.60;99.90
52203;DHT22;38173;52.850;6.970;2023-03-24T10:00:21;12.50;99.90
52203;DHT22;38173;52.850;6.970;2023-03-24T10:02:59;12.50;99.90
52203;DHT22;38173;52.850;6.970;2023-03-24T10:05:34;12.60;99.90
52203;DHT22;38173;52.850;6.970;2023-03-24T10:08:09;12.90;99.90
52203;DHT22;38173;52.850;6.970;2023-03-24T10:10:44;13.10;99.90
52203;DHT22;38173;52.850;6.970;2023-03-24T10:13:21;13.30;99.90
52203;DHT22;38173;52.850;6.970;2023-03-24T10:15:51;13.40;99.90
52203;DHT22;38173;52.850;6.970;2023-03-24T10:20:53;12.80;99.90
52203;DHT22;38173;52.850;6.970;2023-03-24T10:28:20;12.20;99.90
52203;DHT22;38173;52.850;6.970;2023-03-24T10:30:48;12.10;99.90
52203;DHT22;38173;52.850;6.970;2023-03-24T10:33:17;12.00;99.90
52203;DHT22;38173;52.850;6.970;2023-03-24T10:38:14;11.90;99.90
52203;DHT22;38173;52.850;6.970;2023-03-24T10:40:41;12.00;99.90
52203;DHT22;38173;52.850;6.970;2023-03-24T10:43:07;12.20;99.90
52203;DHT22;38173;52.850;6.970;2023-03-24T10:45:33;12.50;99.90
52203;DHT22;38173;52.850;6.970;2023-03-24T10:48:00;12.70;99.90
52203;DHT22;38173;52.850;6.970;2023-03-24T10:50:27;12.70;99.90
52203;DHT22;38173;52.850;6.970;2023-03-24T10:52:53;12.70;99.90
52203;DHT22;38173;52.850;6.970;2023-03-24T10:55:21;12.90;99.90
52203;DHT22;38173;52.850;6.970;2023-03-24T10:57:55;13.10;99.90
52203;DHT22;38173;52.850;6.970;2023-03-24T11:00:29;13.10;99.90
52203;DHT22;38173;52.850;6.970;2023-03-24T11:03:00;13.30;99.90
52203;DHT22;38173;52.850;6.970;2023-03-24T11:05:31;13.30;99.90
52203;DHT22;38173;52.850;6.970;2023-03-24T11:08:09;13.50;99.90
52203;DHT22;38173;52.850;6.970;2023-03-24T11:10:38;13.70;99.90
52203;DHT22;38173;52.850;6.970;2023-03-24T11:13:04;13.90;99.90
52203;DHT22;38173;52.850;6.970;2023-03-24T11:15:32;14.20;99.90
52203;DHT22;38173;52.850;6.970;2023-03-24T11:18:00;14.20;99.90
52203;DHT22;38173;52.850;6.970;2023-03-24T11:20:32;14.20;99.90
52203;DHT22;38173;52.850;6.970;2023-03-24T11:25:35;14.30;99.90
52203;DHT22;38173;52.850;6.970;2023-03-24T11:28:02;14.20;99.90
52203;DHT22;38173;52.850;6.970;2023-03-24T11:30:34;14.40;99.90
52203;DHT22;38173;52.850;6.970;2023-03-24T11:33:03;14.50;99.90
52203;DHT22;38173;52.850;6.970;2023-03-24T11:35:39;14.80;99.90
52203;DHT22;38173;52.850;6.970;2023-03-24T11:38:05;14.90;99.90
52203;DHT22;38173;52.850;6.970;2023-03-24T11:40:31;15.00;99.90
52203;DHT22;38173;52.850;6.970;2023-03-24T11:42:57;15.00;99.90
52203;DHT22;38173;52.850;6.970;2023-03-24T11:45:40;15.00;99.90
52203;DHT22;38173;52.850;6.970;2023-03-24T11:51:04;14.50;99.90
52203;DHT22;38173;52.850;6.970;2023-03-24T11:53:33;14.50;99.90
52203;DHT22;38173;52.850;6.970;2023-03-24T11:56:07;14.50;99.90
52203;DHT22;38173;52.850;6.970;2023-03-24T12:04:07;14.70;99.90
52203;DHT22;38173;52.850;6.970;2023-03-24T12:11:57;15.00;99.90
52203;DHT22;38173;52.850;6.970;2023-03-24T12:14:39;14.90;99.90
52203;DHT22;38173;52.850;6.970;2023-03-24T12:17:09;14.80;99.90
52203;DHT22;38173;52.850;6.970;2023-03-24T12:19:58;14.60;99.90
52203;DHT22;38173;52.850;6.970;2023-03-24T12:27:27;14.30;99.90
52203;DHT22;38173;52.850;6.970;2023-03-24T12:30:04;14.30;99.90
52203;DHT22;38173;52.850;6.970;2023-03-24T12:35:18;14.50;99.90
52203;DHT22;38173;52.850;6.970;2023-03-24T12:37:51;14.60;99.90
52203;DHT22;38173;52.850;6.970;2023-03-24T12:43:03;14.60;99.90
52203;DHT22;38173;52.850;6.970;2023-03-24T12:48:09;14.70;99.90
52203;DHT22;38173;52.850;6.970;2023-03-24T12:50:43;14.70;99.90
52203;DHT22;38173;52.850;6.970;2023-03-24T13:03:37;15.00;99.90
52203;DHT22;38173;52.850;6.970;2023-03-24T13:06:15;15.10;99.90
52203;DHT22;38173;52.850;6.970;2023-03-24T13:08:41;15.10;99.90
52203;DHT22;38173;52.850;6.970;2023-03-24T13:11:10;15.10;99.90
52203;DHT22;38173;52.850;6.970;2023-03-24T13:13:39;15.20;99.90
52203;DHT22;38173;52.850;6.970;2023-03-24T13:16:07;15.20;99.90
52203;DHT22;38173;52.850;6.970;2023-03-24T13:18:41;15.10;99.60
52203;DHT22;38173;52.850;6.970;2023-03-24T13:21:09;15.10;99.90
52203;DHT22;38173;52.850;6.970;2023-03-24T13:23:44;15.20;99.90
52203;DHT22;38173;52.850;6.970;2023-03-24T13:31:32;15.10;99.90
52203;DHT22;38173;52.850;6.970;2023-03-24T13:34:00;14.90;99.90
52203;DHT22;38173;52.850;6.970;2023-03-24T13:36:44;14.70;99.90
52203;DHT22;38173;52.850;6.970;2023-03-24T13:39:15;14.40;99.90
52203;DHT22;38173;52.850;6.970;2023-03-24T13:41:45;14.20;99.90
52203;DHT22;38173;52.850;6.970;2023-03-24T13:44:17;13.90;99.90
52203;DHT22;38173;52.850;6.970;2023-03-24T13:46:46;13.80;99.90
52203;DHT22;38173;52.850;6.970;2023-03-24T13:49:23;13.70;99.90
52203;DHT22;38173;52.850;6.970;2023-03-24T13:51:49;13.50;99.90
52203;DHT22;38173;52.850;6.970;2023-03-24T13:54:16;13.50;99.90
52203;DHT22;38173;52.850;6.970;2023-03-24T13:59:25;13.40;99.90
52203;DHT22;38173;52.850;6.970;2023-03-24T14:07:28;13.30;99.90
52203;DHT22;38173;52.850;6.970;2023-03-24T14:09:57;13.20;99.90
52203;DHT22;38173;52.850;6.970;2023-03-24T14:12:23;13.20;99.90
52203;DHT22;38173;52.850;6.970;2023-03-24T14:17:34;13.60;99.90
52203;DHT22;38173;52.850;6.970;2023-03-24T14:22:33;13.50;99.90
52203;DHT22;38173;52.850;6.970;2023-03-24T14:25:02;13.20;99.90
52203;DHT22;38173;52.850;6.970;2023-03-24T14:27:32;13.10;99.90
52203;DHT22;38173;52.850;6.970;2023-03-24T14:30:18;12.90;99.90
52203;DHT22;38173;52.850;6.970;2023-03-24T14:32:48;12.80;99.90
52203;DHT22;38173;52.850;6.970;2023-03-24T14:35:24;13.40;99.90
52203;DHT22;38173;52.850;6.970;2023-03-24T14:37:54;14.40;99.90
52203;DHT22;38173;52.850;6.970;2023-03-24T14:40:39;15.30;99.90
52203;DHT22;38173;52.850;6.970;2023-03-24T14:51:05;17.30;99.90
52203;DHT22;38173;52.850;6.970;2023-03-24T14:53:34;16.80;99.90
52203;DHT22;38173;52.850;6.970;2023-03-24T14:56:03;16.10;99.90
52203;DHT22;38173;52.850;6.970;2023-03-24T14:58:30;15.50;99.90
52203;DHT22;38173;52.850;6.970;2023-03-24T15:01:01;14.90;99.90
52203;DHT22;38173;52.850;6.970;2023-03-24T15:03:33;14.40;99.90
52203;DHT22;38173;52.850;6.970;2023-03-24T15:08:35;13.60;99.90
52203;DHT22;38173;52.850;6.970;2023-03-24T15:11:02;13.30;99.90
52203;DHT22;38173;52.850;6.970;2023-03-24T15:13:39;13.10;99.90
52203;DHT22;38173;52.850;6.970;2023-03-24T15:18:47;12.90;99.90
52203;DHT22;38173;52.850;6.970;2023-03-24T15:21:15;12.80;99.90
52203;DHT22;38173;52.850;6.970;2023-03-24T15:23:47;12.70;99.90
52203;DHT22;38173;52.850;6.970;2023-03-24T15:26:13;12.40;99.90
52203;DHT22;38173;52.850;6.970;2023-03-24T15:28:39;12.20;99.90
52203;DHT22;38173;52.850;6.970;2023-03-24T15:31:05;12.00;99.90
52203;DHT22;38173;52.850;6.970;2023-03-24T15:33:38;11.90;99.90
52203;DHT22;38173;52.850;6.970;2023-03-24T15:36:11;11.70;99.90
52203;DHT22;38173;52.850;6.970;2023-03-24T15:38:37;11.70;99.90
52203;DHT22;38173;52.850;6.970;2023-03-24T15:41:10;11.60;99.90
52203;DHT22;38173;52.850;6.970;2023-03-24T15:43:43;11.60;99.90
52203;DHT22;38173;52.850;6.970;2023-03-24T15:46:21;11.50;99.90
52203;DHT22;38173;52.850;6.970;2023-03-24T15:48:47;11.50;99.90
52203;DHT22;38173;52.850;6.970;2023-03-24T15:51:13;11.30;99.90
52203;DHT22;38173;52.850;6.970;2023-03-24T15:56:23;11.30;99.90
52203;DHT22;38173;52.850;6.970;2023-03-24T15:58:50;11.30;99.90
52203;DHT22;38173;52.850;6.970;2023-03-24T16:01:18;11.20;99.90
52203;DHT22;38173;52.850;6.970;2023-03-24T16:03:47;11.20;99.90
52203;DHT22;38173;52.850;6.970;2023-03-24T16:06:13;11.20;99.90
52203;DHT22;38173;52.850;6.970;2023-03-24T16:08:40;11.10;99.90
52203;DHT22;38173;52.850;6.970;2023-03-24T16:11:08;11.10;99.90
52203;DHT22;38173;52.850;6.970;2023-03-24T16:13:40;11.00;99.90
52203;DHT22;38173;52.850;6.970;2023-03-24T16:18:39;10.90;99.90
52203;DHT22;38173;52.850;6.970;2023-03-24T16:21:24;10.80;99.90
52203;DHT22;38173;52.850;6.970;2023-03-24T16:23:51;10.60;99.90
52203;DHT22;38173;52.850;6.970;2023-03-24T16:26:30;10.50;99.90
52203;DHT22;38173;52.850;6.970;2023-03-24T16:31:37;10.30;99.90
52203;DHT22;38173;52.850;6.970;2023-03-24T16:34:03;10.30;99.90
52203;DHT22;38173;52.850;6.970;2023-03-24T16:36:29;10.20;99.90
52203;DHT22;38173;52.850;6.970;2023-03-24T16:38:55;10.20;99.90
52203;DHT22;38173;52.850;6.970;2023-03-24T16:41:21;10.20;99.90
52203;DHT22;38173;52.850;6.970;2023-03-24T16:43:47;10.10;99.90
52203;DHT22;38173;52.850;6.970;2023-03-24T16:46:13;10.30;99.90
52203;DHT22;38173;52.850;6.970;2023-03-24T16:48:44;10.90;99.90
52203;DHT22;38173;52.850;6.970;2023-03-24T16:51:34;12.00;99.90
52203;DHT22;38173;52.850;6.970;2023-03-24T16:53:59;12.70;99.90
52203;DHT22;38173;52.850;6.970;2023-03-24T16:56:26;12.50;99.90
52203;DHT22;38173;52.850;6.970;2023-03-24T16:58:52;12.10;99.90
52203;DHT22;38173;52.850;6.970;2023-03-24T17:01:19;11.70;99.90
52203;DHT22;38173;52.850;6.970;2023-03-24T17:03:52;11.40;99.90
52203;DHT22;38173;52.850;6.970;2023-03-24T17:06:19;11.00;99.90
52203;DHT22;38173;52.850;6.970;2023-03-24T17:08:48;10.90;99.90
52203;DHT22;38173;52.850;6.970;2023-03-24T17:11:14;10.80;99.90
52203;DHT22;38173;52.850;6.970;2023-03-24T17:13:41;10.70;99.90
52203;DHT22;38173;52.850;6.970;2023-03-24T17:16:10;10.70;99.90
52203;DHT22;38173;52.850;6.970;2023-03-24T17:18:36;10.60;99.90
52203;DHT22;38173;52.850;6.970;2023-03-24T17:21:14;10.60;99.90
52203;DHT22;38173;52.850;6.970;2023-03-24T17:23:41;10.50;99.90
52203;DHT22;38173;52.850;6.970;2023-03-24T17:26:07;10.40;99.90
52203;DHT22;38173;52.850;6.970;2023-03-24T17:28:41;10.40;99.90
52203;DHT22;38173;52.850;6.970;2023-03-24T17:31:07;10.30;99.90
52203;DHT22;38173;52.850;6.970;2023-03-24T17:33:32;10.30;99.90
52203;DHT22;38173;52.850;6.970;2023-03-24T17:35:59;10.20;99.90
52203;DHT22;38173;52.850;6.970;2023-03-24T17:38:24;10.20;99.90
52203;DHT22;38173;52.850;6.970;2023-03-24T17:41:01;10.10;99.90
52203;DHT22;38173;52.850;6.970;2023-03-24T17:43:27;10.10;99.90
52203;DHT22;38173;52.850;6.970;2023-03-24T17:45:56;10.10;99.90
52203;DHT22;38173;52.850;6.970;2023-03-24T17:48:22;10.10;99.90
52203;DHT22;38173;52.850;6.970;2023-03-24T17:50:48;10.00;99.90
52203;DHT22;38173;52.850;6.970;2023-03-24T17:53:14;10.00;99.90
52203;DHT22;38173;52.850;6.970;2023-03-24T17:55:51;9.90;99.90
52203;DHT22;38173;52.850;6.970;2023-03-24T17:58:18;9.90;99.90
52203;DHT22;38173;52.850;6.970;2023-03-24T18:00:44;9.80;99.90
52203;DHT22;38173;52.850;6.970;2023-03-24T18:03:09;9.80;99.90
52203;DHT22;38173;52.850;6.970;2023-03-24T18:05:35;9.80;99.90
52203;DHT22;38173;52.850;6.970;2023-03-24T18:08:01;9.80;99.90
52203;DHT22;38173;52.850;6.970;2023-03-24T18:10:29;9.80;99.90
52203;DHT22;38173;52.850;6.970;2023-03-24T18:12:55;9.70;99.90
52203;DHT22;38173;52.850;6.970;2023-03-24T18:15:22;9.70;99.90
52203;DHT22;38173;52.850;6.970;2023-03-24T18:17:50;9.70;99.90